createdAt,value
2019-02-22T00:00:28.481Z,11.10
2019-02-22T00:02:57.917Z,11.10
2019-02-22T00:05:25.939Z,11.00
2019-02-22T00:07:54.126Z,11.00
2019-02-22T00:10:22.432Z,11.00
2019-02-22T00:12:50.442Z,11.00
2019-02-22T00:15:18.524Z,11.00
2019-02-22T00:17:46.534Z,10.90
2019-02-22T00:20:14.771Z,10.90
2019-02-22T00:22:43.001Z,10.90
2019-02-22T00:25:11.014Z,10.80
2019-02-22T00:27:39.105Z,10.90
2019-02-22T00:30:07.490Z,10.90
2019-02-22T00:32:35.615Z,10.80
2019-02-22T00:35:03.897Z,10.90
2019-02-22T00:37:32.232Z,10.80
2019-02-22T00:40:00.676Z,10.80
2019-02-22T00:42:28.666Z,10.60
2019-02-22T00:44:56.857Z,10.80
2019-02-22T00:47:24.859Z,10.80
2019-02-22T00:49:52.961Z,10.80
2019-02-22T00:52:21.015Z,10.80
2019-02-22T00:54:50.133Z,10.80
2019-02-22T00:57:18.198Z,10.90
2019-02-22T00:59:46.527Z,10.90
2019-02-22T01:02:14.650Z,10.90
2019-02-22T01:04:42.670Z,10.90
2019-02-22T01:07:10.930Z,10.90
2019-02-22T01:09:39.003Z,10.80
2019-02-22T01:12:07.143Z,10.80
2019-02-22T01:17:03.271Z,10.80
2019-02-22T01:19:33.127Z,10.80
2019-02-22T01:22:01.418Z,10.80
2019-02-22T01:24:30.471Z,10.80
2019-02-22T01:26:58.930Z,10.50
2019-02-22T01:29:26.903Z,10.80
2019-02-22T01:31:55.121Z,10.80
2019-02-22T01:34:23.252Z,10.80
2019-02-22T01:36:51.490Z,10.90
2019-02-22T01:39:19.649Z,10.80
2019-02-22T01:41:47.738Z,10.80
2019-02-22T01:44:21.743Z,10.80
2019-02-22T01:46:49.746Z,10.90
2019-02-22T01:49:17.871Z,10.90
2019-02-22T01:51:46.167Z,10.90
2019-02-22T01:54:14.223Z,10.90
2019-02-22T01:56:42.304Z,10.90
2019-02-22T01:59:10.490Z,10.90
2019-02-22T02:01:38.622Z,10.90
2019-02-22T02:04:06.731Z,10.90
2019-02-22T02:06:34.712Z,11.00
2019-02-22T02:09:04.934Z,10.90
2019-02-22T02:11:34.112Z,10.90
2019-02-22T02:14:02.286Z,10.80
2019-02-22T02:16:30.317Z,10.80
2019-02-22T02:18:58.471Z,10.80
2019-02-22T02:21:26.571Z,10.80
2019-02-22T02:23:54.661Z,10.80
2019-02-22T02:26:22.812Z,10.90
2019-02-22T02:28:51.697Z,10.80
2019-02-22T02:31:20.357Z,10.80
2019-02-22T02:33:48.767Z,10.80
2019-02-22T02:36:16.946Z,10.90
2019-02-22T02:38:45.395Z,10.90
2019-02-22T02:41:13.403Z,10.80
2019-02-22T02:43:41.435Z,10.80
2019-02-22T02:46:09.440Z,10.90
2019-02-22T02:48:37.453Z,10.90
2019-02-22T02:51:05.421Z,10.80
2019-02-22T02:53:33.515Z,10.80
2019-02-22T02:56:01.501Z,10.50
2019-02-22T02:58:29.493Z,10.80
2019-02-22T03:00:57.500Z,10.70
2019-02-22T03:03:25.788Z,10.70
2019-02-22T03:06:19.802Z,10.90
2019-02-22T03:08:48.047Z,11.00
2019-02-22T03:11:20.700Z,11.00
2019-02-22T03:13:46.598Z,10.90
2019-02-22T03:16:14.584Z,10.80
2019-02-22T03:18:42.611Z,10.80
2019-02-22T03:21:11.114Z,10.80
2019-02-22T03:23:40.209Z,10.70
2019-02-22T03:26:08.208Z,11.00
2019-02-22T03:28:36.222Z,10.90
2019-02-22T03:31:04.198Z,10.80
2019-02-22T03:33:32.300Z,10.70
2019-02-22T03:36:00.374Z,10.60
2019-02-22T03:38:28.361Z,10.70
2019-02-22T03:40:56.617Z,10.70
2019-02-22T03:43:24.954Z,10.60
2019-02-22T03:45:53.364Z,10.60
2019-02-22T03:48:21.752Z,10.60
2019-02-22T03:50:49.761Z,10.50
2019-02-22T03:53:24.807Z,10.70
2019-02-22T03:55:52.882Z,10.60
2019-02-22T03:58:20.903Z,10.50
2019-02-22T04:00:49.126Z,10.50
2019-02-22T04:03:17.165Z,10.50
2019-02-22T04:05:45.305Z,10.40
2019-02-22T04:08:13.622Z,10.10
2019-02-22T04:10:42.077Z,10.40
2019-02-22T04:13:10.134Z,10.40
2019-02-22T04:15:38.341Z,10.30
2019-02-22T04:18:06.397Z,10.30
2019-02-22T04:20:35.064Z,10.20
2019-02-22T04:23:04.089Z,10.10
2019-02-22T04:25:32.278Z,10.00
2019-02-22T04:28:00.905Z,10.00
2019-02-22T04:30:29.043Z,10.00
2019-02-22T04:32:57.096Z,10.00
2019-02-22T04:35:25.150Z,9.90
2019-02-22T04:37:55.899Z,9.90
2019-02-22T04:40:24.053Z,9.80
2019-02-22T04:42:52.184Z,9.80
2019-02-22T04:45:20.359Z,9.70
2019-02-22T04:47:49.637Z,9.80
2019-02-22T04:50:17.736Z,9.70
2019-02-22T04:52:46.224Z,9.70
2019-02-22T04:55:14.241Z,9.70
2019-02-22T04:57:42.307Z,9.70
2019-02-22T05:00:10.338Z,9.70
2019-02-22T05:02:40.044Z,9.70
2019-02-22T05:05:08.599Z,9.60
2019-02-22T05:07:36.567Z,9.60
2019-02-22T05:10:04.902Z,9.60
2019-02-22T05:12:32.915Z,9.50
2019-02-22T05:15:11.874Z,9.50
2019-02-22T05:17:31.206Z,9.40
2019-02-22T05:19:59.230Z,9.40
2019-02-22T05:22:27.250Z,9.60
2019-02-22T05:24:55.286Z,9.40
2019-02-22T05:27:23.502Z,9.30
2019-02-22T05:29:52.684Z,9.30
2019-02-22T05:32:27.173Z,9.30
2019-02-22T05:34:55.737Z,9.00
2019-02-22T05:37:23.741Z,9.30
2019-02-22T05:39:51.742Z,9.40
2019-02-22T05:42:23.190Z,9.40
2019-02-22T05:44:49.839Z,9.40
2019-02-22T05:47:17.867Z,9.50
2019-02-22T05:49:45.875Z,9.50
2019-02-22T05:52:13.907Z,9.50
2019-02-22T05:54:41.936Z,11.20
2019-02-22T05:57:10.051Z,9.20
2019-02-22T05:59:38.060Z,9.60
2019-02-22T06:02:06.016Z,9.70
2019-02-22T06:04:34.039Z,9.80
2019-02-22T06:07:02.143Z,9.60
2019-02-22T06:09:30.114Z,9.30
2019-02-22T06:11:58.125Z,9.30
2019-02-22T06:14:26.157Z,9.30
2019-02-22T06:16:54.178Z,9.40
2019-02-22T06:19:22.455Z,9.40
2019-02-22T06:21:50.607Z,9.30
2019-02-22T06:24:18.685Z,9.30
2019-02-22T06:26:46.812Z,9.30
2019-02-22T06:29:14.955Z,9.20
2019-02-22T06:31:42.952Z,9.20
2019-02-22T06:34:11.072Z,9.20
2019-02-22T06:36:39.174Z,9.20
2019-02-22T06:39:07.351Z,9.10
2019-02-22T06:41:35.394Z,9.20
2019-02-22T06:44:03.464Z,9.10
2019-02-22T06:46:31.642Z,9.20
2019-02-22T06:48:59.795Z,9.00
2019-02-22T06:51:27.822Z,8.90
2019-02-22T06:53:55.936Z,8.90
2019-02-22T06:58:52.416Z,8.90
2019-02-22T07:01:20.507Z,8.90
2019-02-22T07:03:48.777Z,8.90
2019-02-22T07:06:16.801Z,9.00
2019-02-22T07:08:44.824Z,9.00
2019-02-22T07:11:32.487Z,9.00
2019-02-22T07:14:00.983Z,9.00
2019-02-22T07:16:29.014Z,8.70
2019-02-22T07:18:57.076Z,9.00
2019-02-22T07:21:25.073Z,9.10
2019-02-22T07:23:53.158Z,9.10
2019-02-22T07:26:21.490Z,9.10
2019-02-22T07:28:49.783Z,9.10
2019-02-22T07:31:17.797Z,9.10
2019-02-22T07:33:45.835Z,9.10
2019-02-22T07:36:13.899Z,9.00
2019-02-22T07:38:42.295Z,9.00
2019-02-22T07:41:10.334Z,9.00
2019-02-22T07:43:38.401Z,9.00
2019-02-22T07:46:06.913Z,9.00
2019-02-22T07:48:35.261Z,9.00
2019-02-22T07:51:03.291Z,9.00
2019-02-22T07:53:31.335Z,9.00
2019-02-22T07:55:59.810Z,9.10
2019-02-22T07:58:28.120Z,9.10
2019-02-22T08:00:56.243Z,9.10
2019-02-22T08:03:24.313Z,9.00
2019-02-22T08:05:52.800Z,9.10
2019-02-22T08:08:21.884Z,9.10
2019-02-22T08:10:49.925Z,9.10
2019-02-22T08:13:19.993Z,9.10
2019-02-22T08:15:47.979Z,9.10
2019-02-22T08:18:16.630Z,9.20
2019-02-22T08:20:44.706Z,9.20
2019-02-22T08:23:12.836Z,9.30
2019-02-22T08:25:40.885Z,9.40
2019-02-22T08:28:08.886Z,9.30
2019-02-22T08:30:36.953Z,9.40
2019-02-22T08:33:05.027Z,9.40
2019-02-22T08:35:33.138Z,9.50
2019-02-22T08:38:01.337Z,9.60
2019-02-22T08:40:29.683Z,9.60
2019-02-22T08:42:57.691Z,9.70
2019-02-22T08:45:26.072Z,9.80
2019-02-22T08:47:56.049Z,9.80
2019-02-22T08:50:24.342Z,9.90
2019-02-22T08:52:52.525Z,9.90
2019-02-22T08:55:22.004Z,10.00
2019-02-22T09:00:20.170Z,10.00
2019-02-22T09:02:48.426Z,10.10
2019-02-22T09:05:16.722Z,10.20
2019-02-22T09:07:44.739Z,10.40
2019-02-22T09:10:12.913Z,10.60
2019-02-22T09:12:40.966Z,10.70
2019-02-22T09:15:09.057Z,10.70
2019-02-22T09:17:37.349Z,10.80
2019-02-22T09:20:06.393Z,10.80
2019-02-22T09:22:36.478Z,10.70
2019-02-22T09:25:05.154Z,10.70
2019-02-22T09:27:33.185Z,10.60
2019-02-22T09:30:02.363Z,10.40
2019-02-22T09:32:30.545Z,10.40
2019-02-22T09:34:59.078Z,10.70
2019-02-22T09:37:27.505Z,10.70
2019-02-22T09:39:55.726Z,10.80
2019-02-22T09:42:23.770Z,10.80
2019-02-22T09:44:52.153Z,10.80
2019-02-22T09:47:20.204Z,10.90
2019-02-22T09:49:48.357Z,11.00
2019-02-22T09:52:16.328Z,11.20
2019-02-22T09:54:44.696Z,11.20
2019-02-22T09:57:12.690Z,11.30
2019-02-22T09:59:40.873Z,11.30
2019-02-22T10:02:08.903Z,11.30
2019-02-22T10:04:36.976Z,11.30
2019-02-22T10:07:04.979Z,11.40
2019-02-22T10:12:01.195Z,12.00
2019-02-22T10:14:29.345Z,12.00
2019-02-22T10:16:59.301Z,12.10
2019-02-22T10:19:29.086Z,12.10
2019-02-22T10:21:57.831Z,12.00
2019-02-22T10:24:26.096Z,12.10
2019-02-22T10:26:54.578Z,12.10
2019-02-22T10:29:22.617Z,12.00
2019-02-22T10:31:50.709Z,11.80
2019-02-22T10:34:19.022Z,11.70
2019-02-22T10:36:47.072Z,11.80
2019-02-22T10:39:15.553Z,12.00
2019-02-22T10:41:43.798Z,12.00
2019-02-22T10:44:17.637Z,12.20
2019-02-22T10:46:42.833Z,12.20
2019-02-22T10:49:10.828Z,12.40
2019-02-22T10:51:38.837Z,12.50
2019-02-22T10:54:06.999Z,12.80
2019-02-22T10:56:35.373Z,13.10
2019-02-22T10:59:03.429Z,13.40
2019-02-22T11:01:31.475Z,13.60
2019-02-22T11:03:59.511Z,13.90
2019-02-22T11:06:27.950Z,13.80
2019-02-22T11:08:55.957Z,13.50
2019-02-22T11:11:24.301Z,13.40
2019-02-22T11:13:52.565Z,13.30
2019-02-22T11:16:20.692Z,13.10
2019-02-22T11:18:48.748Z,13.10
2019-02-22T11:21:16.834Z,12.90
2019-02-22T11:23:44.851Z,12.90
2019-02-22T11:26:13.057Z,12.90
2019-02-22T11:28:42.636Z,12.90
2019-02-22T11:31:10.808Z,13.00
2019-02-22T11:33:38.982Z,12.90
2019-02-22T11:36:07.317Z,13.00
2019-02-22T11:38:35.382Z,13.00
2019-02-22T11:41:03.569Z,13.20
2019-02-22T11:43:31.850Z,13.60
2019-02-22T11:48:50.256Z,13.90
2019-02-22T11:51:22.431Z,14.20
2019-02-22T11:53:50.516Z,14.20
2019-02-22T11:56:20.130Z,14.10
2019-02-22T11:58:48.643Z,14.00
2019-02-22T12:01:17.262Z,14.00
2019-02-22T12:03:45.682Z,13.60
2019-02-22T12:06:14.034Z,13.60
2019-02-22T12:08:42.864Z,13.50
2019-02-22T12:11:11.025Z,13.40
2019-02-22T12:13:39.208Z,13.60
2019-02-22T12:16:07.241Z,13.80
2019-02-22T12:18:36.561Z,13.80
2019-02-22T12:21:05.207Z,13.90
2019-02-22T12:23:34.737Z,13.60
2019-02-22T12:26:02.828Z,13.50
2019-02-22T12:28:31.088Z,16.00
2019-02-22T12:30:59.574Z,13.40
2019-02-22T12:33:27.696Z,13.20
2019-02-22T12:35:56.352Z,13.10
2019-02-22T12:38:24.577Z,13.10
2019-02-22T12:40:52.779Z,13.20
2019-02-22T12:43:20.852Z,13.10
2019-02-22T12:45:48.979Z,13.10
2019-02-22T12:48:17.333Z,13.10
2019-02-22T12:50:45.536Z,13.10
2019-02-22T12:53:13.631Z,13.30
2019-02-22T12:55:41.753Z,13.30
2019-02-22T12:58:09.925Z,13.20
2019-02-22T13:00:38.073Z,13.20
2019-02-22T13:03:07.009Z,13.20
2019-02-22T13:05:35.858Z,13.20
2019-02-22T13:08:05.896Z,13.10
2019-02-22T13:10:34.319Z,13.10
2019-02-22T13:13:02.731Z,13.10
2019-02-22T13:15:31.180Z,13.20
2019-02-22T13:17:59.423Z,13.20
2019-02-22T13:20:27.851Z,13.20
2019-02-22T13:22:55.917Z,13.10
2019-02-22T13:25:26.958Z,13.10
2019-02-22T13:27:55.550Z,13.20
2019-02-22T13:30:23.909Z,13.20
2019-02-22T13:32:52.388Z,13.10
2019-02-22T13:35:20.782Z,13.00
2019-02-22T13:37:49.096Z,12.90
2019-02-22T13:40:17.230Z,12.90
2019-02-22T13:42:47.314Z,13.10
2019-02-22T13:45:26.105Z,13.10
2019-02-22T13:47:45.801Z,13.20
2019-02-22T13:50:14.521Z,13.30
2019-02-22T13:52:42.897Z,13.30
2019-02-22T13:55:10.973Z,13.30
2019-02-22T13:57:43.500Z,13.30
2019-02-22T14:00:15.372Z,13.30
2019-02-22T14:02:43.609Z,13.30
2019-02-22T14:05:11.844Z,13.30
2019-02-22T14:07:49.693Z,13.40
2019-02-22T14:10:19.145Z,13.50
2019-02-22T14:12:47.723Z,13.40
2019-02-22T14:15:18.682Z,13.20
2019-02-22T14:17:46.186Z,13.10
2019-02-22T14:20:15.507Z,13.10
2019-02-22T14:22:43.752Z,13.00
2019-02-22T14:25:12.125Z,13.00
2019-02-22T14:27:40.307Z,13.00
2019-02-22T14:30:10.387Z,13.10
2019-02-22T14:32:38.789Z,13.20
2019-02-22T14:35:06.917Z,13.10
2019-02-22T14:37:35.050Z,13.10
2019-02-22T14:40:05.741Z,13.10
2019-02-22T14:42:33.793Z,13.40
2019-02-22T14:45:02.025Z,14.70
2019-02-22T14:47:30.294Z,16.30
2019-02-22T14:49:59.776Z,17.50
2019-02-22T14:52:28.118Z,18.60
2019-02-22T14:54:56.265Z,19.60
2019-02-22T14:57:26.745Z,19.60
2019-02-22T14:59:55.010Z,20.10
2019-02-22T15:02:24.144Z,19.80
2019-02-22T15:04:52.426Z,20.50
2019-02-22T15:07:20.939Z,21.00
2019-02-22T15:09:49.484Z,20.90
2019-02-22T15:12:17.749Z,20.90
2019-02-22T15:14:47.074Z,20.90
2019-02-22T15:17:22.213Z,21.00
2019-02-22T15:19:52.448Z,20.40
2019-02-22T15:22:20.715Z,20.10
2019-02-22T15:24:49.110Z,20.80
2019-02-22T15:29:58.695Z,20.60
2019-02-22T15:32:26.891Z,21.20
2019-02-22T15:34:57.569Z,21.00
2019-02-22T15:37:27.713Z,21.70
2019-02-22T15:39:56.063Z,20.40
2019-02-22T15:42:26.524Z,20.20
2019-02-22T15:44:54.990Z,20.30
2019-02-22T15:47:23.485Z,19.90
2019-02-22T15:49:51.884Z,20.60
2019-02-22T15:52:30.899Z,20.60
2019-02-22T15:54:55.512Z,20.60
2019-02-22T15:57:25.105Z,20.70
2019-02-22T15:59:53.714Z,20.20
2019-02-22T16:02:24.472Z,20.00
2019-02-22T16:05:03.634Z,19.20
2019-02-22T16:07:31.744Z,19.30
2019-02-22T16:10:00.536Z,19.40
2019-02-22T16:12:28.645Z,18.30
2019-02-22T16:14:57.565Z,17.30
2019-02-22T16:17:25.833Z,16.30
2019-02-22T16:19:55.132Z,15.80
2019-02-22T16:22:23.347Z,15.60
2019-02-22T16:24:52.589Z,15.20
2019-02-22T16:27:20.630Z,14.70
2019-02-22T16:29:48.711Z,14.30
2019-02-22T16:32:16.812Z,14.00
2019-02-22T16:34:46.994Z,13.80
2019-02-22T16:37:14.937Z,13.40
2019-02-22T16:39:42.959Z,13.50
2019-02-22T16:42:13.011Z,13.10
2019-02-22T16:44:41.428Z,13.10
2019-02-22T16:47:11.511Z,13.60
2019-02-22T16:49:39.933Z,12.80
2019-02-22T16:52:07.931Z,12.70
2019-02-22T16:54:36.033Z,12.60
2019-02-22T16:57:04.826Z,12.50
2019-02-22T16:59:32.835Z,12.40
2019-02-22T17:02:01.284Z,12.30
2019-02-22T17:04:30.262Z,12.10
2019-02-22T17:06:58.722Z,12.10
2019-02-22T17:09:26.862Z,12.00
2019-02-22T17:12:05.849Z,11.80
2019-02-22T17:14:25.156Z,11.60
2019-02-22T17:16:54.913Z,11.50
2019-02-22T17:19:22.898Z,11.50
2019-02-22T17:21:51.307Z,11.50
2019-02-22T17:24:20.939Z,11.40
2019-02-22T17:26:49.034Z,11.30
2019-02-22T17:29:17.046Z,11.30
2019-02-22T17:31:45.253Z,11.20
2019-02-22T17:34:13.822Z,11.30
2019-02-22T17:36:42.087Z,11.10
2019-02-22T17:39:10.044Z,11.00
2019-02-22T17:41:39.485Z,11.00
2019-02-22T17:44:08.323Z,11.00
2019-02-22T17:46:36.795Z,10.80
2019-02-22T17:51:33.420Z,10.70
2019-02-22T17:54:01.682Z,10.60
2019-02-22T17:56:30.041Z,10.60
2019-02-22T17:58:58.371Z,10.60
2019-02-22T18:01:26.369Z,10.30
2019-02-22T18:03:54.447Z,10.30
2019-02-22T18:06:22.440Z,10.20
2019-02-22T18:08:50.442Z,10.10
2019-02-22T18:11:18.819Z,10.00
2019-02-22T18:13:47.097Z,9.90
2019-02-22T18:16:15.133Z,9.80
2019-02-22T18:18:43.108Z,9.80
2019-02-22T18:21:11.465Z,9.80
2019-02-22T18:23:39.574Z,9.80
2019-02-22T18:28:35.963Z,9.70
2019-02-22T18:31:04.060Z,9.70
2019-02-22T18:33:32.671Z,9.60
2019-02-22T18:36:01.281Z,9.60
2019-02-22T18:38:29.755Z,9.60
2019-02-22T18:40:58.185Z,9.60
2019-02-22T18:43:26.498Z,9.60
2019-02-22T18:45:54.639Z,9.50
2019-02-22T18:48:24.351Z,9.40
2019-02-22T18:53:20.924Z,9.30
2019-02-22T18:55:50.407Z,9.30
2019-02-22T18:58:18.913Z,9.30
2019-02-22T19:00:47.043Z,9.30
2019-02-22T19:03:15.294Z,9.00
2019-02-22T19:05:43.400Z,9.20
2019-02-22T19:08:11.840Z,9.30
2019-02-22T19:10:40.250Z,9.30
2019-02-22T19:13:08.670Z,9.20
2019-02-22T19:15:36.843Z,9.30
2019-02-22T19:18:05.149Z,9.40
2019-02-22T19:23:01.745Z,9.30
2019-02-22T19:27:58.470Z,9.30
2019-02-22T19:30:26.848Z,9.30
2019-02-22T19:32:55.179Z,9.30
2019-02-22T19:35:24.078Z,9.20
2019-02-22T19:40:21.623Z,8.70
2019-02-22T19:42:49.630Z,9.20
2019-02-22T19:45:17.631Z,9.10
2019-02-22T19:47:54.346Z,9.00
2019-02-22T19:50:22.383Z,8.90
2019-02-22T19:52:50.654Z,8.90
2019-02-22T19:55:18.621Z,8.80
2019-02-22T19:57:48.175Z,8.80
2019-02-22T20:00:16.439Z,8.80
2019-02-22T20:02:46.279Z,9.80
2019-02-22T20:05:18.766Z,8.70
2019-02-22T20:07:47.452Z,8.60
2019-02-22T20:10:18.294Z,8.60
2019-02-22T20:12:46.804Z,8.70
2019-02-22T20:15:15.595Z,8.70
2019-02-22T20:17:53.208Z,8.60
2019-02-22T20:20:14.844Z,8.50
2019-02-22T20:22:42.978Z,8.60
2019-02-22T20:25:11.046Z,8.60
2019-02-22T20:27:39.375Z,8.40
2019-02-22T20:30:11.207Z,8.40
2019-02-22T20:32:39.551Z,8.40
2019-02-22T20:35:11.005Z,8.20
2019-02-22T20:37:39.198Z,8.20
2019-02-22T20:40:08.628Z,8.20
2019-02-22T20:42:37.164Z,8.30
2019-02-22T20:45:06.049Z,8.30
2019-02-22T20:47:34.353Z,8.30
2019-02-22T20:50:02.527Z,7.90
2019-02-22T20:52:31.149Z,8.20
2019-02-22T20:54:59.209Z,8.20
2019-02-22T20:57:27.419Z,8.20
2019-02-22T20:59:55.391Z,8.30
2019-02-22T21:02:31.133Z,8.20
2019-02-22T21:04:59.292Z,7.80
2019-02-22T21:07:27.309Z,8.20
2019-02-22T21:09:55.368Z,8.10
2019-02-22T21:12:23.905Z,8.10
2019-02-22T21:14:52.036Z,8.00
2019-02-22T21:17:20.527Z,8.20
2019-02-22T21:19:48.863Z,8.10
2019-02-22T21:22:16.990Z,8.00
2019-02-22T21:24:44.979Z,8.00
2019-02-22T21:27:13.028Z,8.00
2019-02-22T21:29:41.340Z,8.00
2019-02-22T21:32:09.635Z,8.00
2019-02-22T21:34:37.835Z,8.00
2019-02-22T21:37:06.470Z,8.00
2019-02-22T21:39:36.148Z,7.80
2019-02-22T21:42:04.735Z,7.90
2019-02-22T21:44:33.226Z,7.90
2019-02-22T21:47:01.255Z,7.90
2019-02-22T21:49:29.268Z,7.90
2019-02-22T21:51:57.341Z,8.00
2019-02-22T21:54:25.800Z,8.00
2019-02-22T21:56:54.117Z,7.90
2019-02-22T21:59:22.172Z,7.80
2019-02-22T22:01:50.235Z,7.80
2019-02-22T22:04:20.199Z,7.80
2019-02-22T22:06:48.273Z,7.80
2019-02-22T22:09:18.702Z,7.80
2019-02-22T22:11:46.716Z,7.80
2019-02-22T22:16:42.987Z,7.80
2019-02-22T22:19:11.040Z,7.70
2019-02-22T22:21:39.082Z,7.70
2019-02-22T22:24:07.068Z,7.70
2019-02-22T22:26:35.034Z,7.70
2019-02-22T22:29:03.052Z,7.70
2019-02-22T22:31:31.091Z,7.80
2019-02-22T22:33:59.065Z,7.70
2019-02-22T22:36:27.111Z,7.60
2019-02-22T22:38:55.235Z,7.60
2019-02-22T22:41:23.249Z,7.50
2019-02-22T22:43:51.266Z,7.80
2019-02-22T22:46:19.330Z,7.40
2019-02-22T22:48:50.392Z,7.40
2019-02-22T22:51:17.186Z,7.40
2019-02-22T22:53:45.985Z,7.40
2019-02-22T22:56:14.359Z,7.30
2019-02-22T22:58:42.368Z,7.30
2019-02-22T23:01:23.817Z,7.30
2019-02-22T23:03:52.021Z,7.20
2019-02-22T23:06:20.210Z,7.20
2019-02-22T23:08:48.329Z,7.10
2019-02-22T23:11:16.653Z,7.50
2019-02-22T23:13:44.733Z,7.10
2019-02-22T23:16:14.485Z,7.10
2019-02-22T23:18:42.594Z,7.00
2019-02-22T23:21:10.797Z,6.90
2019-02-22T23:23:38.913Z,6.80
2019-02-22T23:26:07.463Z,6.80
2019-02-22T23:28:35.727Z,6.70
2019-02-22T23:31:03.789Z,6.70
2019-02-22T23:33:31.918Z,6.70
2019-02-22T23:36:00.342Z,6.70
2019-02-22T23:38:29.663Z,6.80
2019-02-22T23:40:57.772Z,6.70
2019-02-22T23:43:25.767Z,6.60
2019-02-22T23:45:54.129Z,6.60
2019-02-22T23:48:22.233Z,6.50
2019-02-22T23:50:51.354Z,6.50
2019-02-22T23:53:19.321Z,6.40
2019-02-22T23:55:47.827Z,6.40
2019-02-22T23:58:15.962Z,6.30
